createdAt,value
2023-05-12T00:02:24.491Z,99195.94
2023-05-12T00:04:52.027Z,99192.59
2023-05-12T00:07:19.083Z,99183.50
2023-05-12T00:09:46.086Z,99191.34
2023-05-12T00:12:13.305Z,99188.63
2023-05-12T00:14:44.473Z,99184.25
2023-05-12T00:17:11.409Z,99185.00
2023-05-12T00:19:43.983Z,99182.22
2023-05-12T00:22:11.555Z,99186.88
2023-05-12T00:24:39.809Z,99180.13
2023-05-12T00:27:06.883Z,99177.91
2023-05-12T00:29:34.571Z,99182.00
2023-05-12T00:32:03.797Z,99177.81
2023-05-12T00:34:30.952Z,99178.63
2023-05-12T00:36:57.954Z,99177.63
2023-05-12T00:39:27.564Z,99185.31
2023-05-12T00:41:56.248Z,99182.69
2023-05-12T00:44:23.467Z,99182.25
2023-05-12T00:46:51.302Z,99181.66
2023-05-12T00:49:20.648Z,99185.97
2023-05-12T00:51:47.816Z,99192.41
2023-05-12T00:54:14.830Z,99189.22
2023-05-12T00:56:42.368Z,99187.81
2023-05-12T00:59:09.837Z,99194.72
2023-05-12T01:01:40.653Z,99185.09
2023-05-12T01:04:08.190Z,99192.16
2023-05-12T01:06:42.343Z,99187.47
2023-05-12T01:09:10.362Z,99182.97
2023-05-12T01:11:37.639Z,99191.44
2023-05-12T01:14:05.465Z,99185.97
2023-05-12T01:16:37.520Z,99189.31
2023-05-12T01:19:07.839Z,99194.25
2023-05-12T01:21:37.119Z,99185.59
2023-05-12T01:24:09.167Z,99188.63
2023-05-12T01:26:38.766Z,99184.63
2023-05-12T01:29:07.340Z,99188.16
2023-05-12T01:31:34.806Z,99184.28
2023-05-12T01:34:01.997Z,99182.34
2023-05-12T01:36:29.817Z,99187.47
2023-05-12T01:38:56.974Z,99178.81
2023-05-12T01:41:23.920Z,99186.31
2023-05-12T01:43:52.385Z,99190.19
2023-05-12T01:46:19.394Z,99191.78
2023-05-12T01:48:46.660Z,99195.13
2023-05-12T01:51:13.720Z,99183.50
2023-05-12T01:53:40.695Z,99180.94
2023-05-12T01:56:07.839Z,99184.28
2023-05-12T01:58:35.760Z,99184.28
2023-05-12T02:01:04.590Z,99183.06
2023-05-12T02:03:31.673Z,99180.66
2023-05-12T02:05:58.935Z,99188.53
2023-05-12T02:08:26.001Z,99193.63
2023-05-12T02:11:05.082Z,99182.41
2023-05-12T02:13:32.392Z,99183.75
2023-05-12T02:15:59.524Z,99188.28
2023-05-12T02:18:28.286Z,99189.59
2023-05-12T02:20:55.645Z,99191.34
2023-05-12T02:23:23.024Z,99188.97
2023-05-12T02:25:50.088Z,99195.84
2023-05-12T02:28:17.472Z,99195.06
2023-05-12T02:30:46.410Z,99200.38
2023-05-12T02:33:13.464Z,99200.38
2023-05-12T02:35:41.792Z,99194.28
2023-05-12T02:38:09.904Z,99193.13
2023-05-12T02:40:36.856Z,99181.75
2023-05-12T02:43:04.079Z,99193.91
2023-05-12T02:45:31.115Z,99181.28
2023-05-12T02:47:58.301Z,99184.50
2023-05-12T02:50:26.484Z,99182.88
2023-05-12T02:52:54.944Z,99193.63
2023-05-12T02:55:22.003Z,99202.47
2023-05-12T02:57:48.971Z,99198.09
2023-05-12T03:00:16.526Z,99202.22
2023-05-12T03:02:43.760Z,99207.34
2023-05-12T03:05:10.740Z,99207.16
2023-05-12T03:07:37.654Z,99206.34
2023-05-12T03:10:07.199Z,99213.78
2023-05-12T03:12:34.201Z,99209.00
2023-05-12T03:15:01.176Z,99222.41
2023-05-12T03:17:31.575Z,99212.00
2023-05-12T03:19:58.591Z,99215.34
2023-05-12T03:22:25.772Z,99218.91
2023-05-12T03:24:52.926Z,99223.66
2023-05-12T03:27:22.081Z,99216.59
2023-05-12T03:29:49.077Z,99224.25
2023-05-12T03:32:17.039Z,99230.97
2023-05-12T03:34:44.293Z,99225.66
2023-05-12T03:37:12.714Z,99226.47
2023-05-12T03:39:39.798Z,99226.91
2023-05-12T03:42:07.096Z,99234.06
2023-05-12T03:44:35.637Z,99233.34
2023-05-12T03:47:02.804Z,99229.94
2023-05-12T03:49:29.856Z,99244.13
2023-05-12T03:51:56.807Z,99234.13
2023-05-12T03:54:24.074Z,99238.56
2023-05-12T03:56:53.007Z,99246.34
2023-05-12T03:59:19.961Z,99227.50
2023-05-12T04:01:48.272Z,99238.63
2023-05-12T04:04:15.345Z,99242.78
2023-05-12T04:06:42.654Z,99241.28
2023-05-12T04:09:10.194Z,99242.13
2023-05-12T04:11:38.057Z,99247.94
2023-05-12T04:14:04.969Z,99251.09
2023-05-12T04:16:31.994Z,99255.28
2023-05-12T04:19:00.449Z,99259.66
2023-05-12T04:21:28.807Z,99260.34
2023-05-12T04:23:55.753Z,99259.25
2023-05-12T04:26:27.360Z,99269.88
2023-05-12T04:28:54.406Z,99260.09
2023-05-12T04:31:21.621Z,99254.84
2023-05-12T04:33:48.675Z,99253.50
2023-05-12T04:36:17.044Z,99249.34
2023-05-12T04:38:44.236Z,99253.69
2023-05-12T04:41:11.228Z,99255.66
2023-05-12T04:46:08.190Z,99268.56
2023-05-12T04:48:35.194Z,99256.91
2023-05-12T04:51:02.508Z,99265.03
2023-05-12T04:53:34.666Z,99256.78
2023-05-12T04:56:02.200Z,99257.31
2023-05-12T04:58:32.633Z,99265.44
2023-05-12T05:01:00.153Z,99262.84
2023-05-12T05:03:27.512Z,99261.91
2023-05-12T05:05:54.956Z,99271.00
2023-05-12T05:08:22.140Z,99276.16
2023-05-12T05:10:50.875Z,99263.22
2023-05-12T05:13:17.832Z,99274.69
2023-05-12T05:15:51.432Z,99279.81
2023-05-12T05:18:19.802Z,99276.25
2023-05-12T05:23:17.569Z,99280.88
2023-05-12T05:25:44.592Z,99278.94
2023-05-12T05:28:13.025Z,99274.63
2023-05-12T05:30:40.537Z,99278.03
2023-05-12T05:33:08.144Z,99289.50
2023-05-12T05:35:37.578Z,99276.66
2023-05-12T05:38:04.570Z,99293.50
2023-05-12T05:40:41.343Z,99289.19
2023-05-12T05:43:19.646Z,99285.44
2023-05-12T05:45:49.324Z,99289.78
2023-05-12T05:48:16.656Z,99298.00
2023-05-12T05:50:43.948Z,99298.84
2023-05-12T05:53:11.113Z,99304.94
2023-05-12T05:55:38.223Z,99300.63
2023-05-12T05:58:08.624Z,99300.63
2023-05-12T06:00:37.405Z,99297.31
2023-05-12T06:03:04.874Z,99286.44
2023-05-12T06:05:32.020Z,99289.22
2023-05-12T06:07:58.928Z,99290.44
2023-05-12T06:10:26.435Z,99283.53
2023-05-12T06:12:55.290Z,99293.25
2023-05-12T06:15:22.539Z,99302.00
2023-05-12T06:17:51.425Z,99289.94
2023-05-12T06:20:23.288Z,99291.91
2023-05-12T06:22:50.349Z,99290.75
2023-05-12T06:25:18.294Z,99296.69
2023-05-12T06:27:45.424Z,99285.41
2023-05-12T06:30:15.862Z,99296.72
2023-05-12T06:32:43.287Z,99291.53
2023-05-12T06:35:11.773Z,99298.28
2023-05-12T06:37:38.724Z,99296.69
2023-05-12T06:40:09.178Z,99297.47
2023-05-12T06:42:36.398Z,99301.53
2023-05-12T06:45:11.362Z,99296.75
2023-05-12T06:47:38.588Z,99299.69
2023-05-12T06:50:07.169Z,99301.81
2023-05-12T06:52:36.193Z,99301.06
2023-05-12T06:55:03.304Z,99296.84
2023-05-12T06:57:30.494Z,99290.09
2023-05-12T06:59:57.441Z,99294.91
2023-05-12T07:02:24.439Z,99288.16
2023-05-12T07:04:51.426Z,99287.03
2023-05-12T07:07:18.902Z,99280.00
2023-05-12T07:09:47.222Z,99288.63
2023-05-12T07:12:14.213Z,99290.59
2023-05-12T07:14:41.276Z,99279.53
2023-05-12T07:17:08.257Z,99281.97
2023-05-12T07:19:35.609Z,99278.81
2023-05-12T07:22:02.755Z,99279.66
2023-05-12T07:24:29.761Z,99282.59
2023-05-12T07:26:58.287Z,99288.41
2023-05-12T07:29:25.213Z,99285.63
2023-05-12T07:31:52.241Z,99276.38
2023-05-12T07:34:19.168Z,99282.78
2023-05-12T07:36:46.114Z,99283.28
2023-05-12T07:39:15.070Z,99289.47
2023-05-12T07:41:42.133Z,99287.75
2023-05-12T07:44:10.699Z,99300.31
2023-05-12T07:46:37.828Z,99288.41
2023-05-12T07:49:04.881Z,99289.56
2023-05-12T07:51:31.801Z,99284.91
2023-05-12T07:53:58.904Z,99282.63
2023-05-12T07:56:25.832Z,99283.84
2023-05-12T07:58:52.807Z,99296.41
2023-05-12T08:01:21.458Z,99280.88
2023-05-12T08:03:48.663Z,99278.03
2023-05-12T08:06:15.703Z,99281.34
2023-05-12T08:08:42.642Z,99276.31
2023-05-12T08:11:10.084Z,99277.13
2023-05-12T08:13:37.072Z,99283.66
2023-05-12T08:16:04.222Z,99274.44
2023-05-12T08:18:32.966Z,99287.69
2023-05-12T08:20:59.882Z,99278.50
2023-05-12T08:23:27.161Z,99276.25
2023-05-12T08:25:54.076Z,99282.91
2023-05-12T08:28:21.247Z,99277.34
2023-05-12T08:30:48.444Z,99278.06
2023-05-12T08:33:15.492Z,99283.03
2023-05-12T08:35:43.790Z,99282.25
2023-05-12T08:38:10.789Z,99278.16
2023-05-12T08:40:44.626Z,99278.41
2023-05-12T08:43:22.634Z,99273.34
2023-05-12T08:45:50.046Z,99274.69
2023-05-12T08:48:19.993Z,99277.59
2023-05-12T08:50:51.431Z,99282.56
2023-05-12T08:53:21.144Z,99270.97
2023-05-12T08:57:08.116Z,99272.31
2023-05-12T08:58:41.689Z,99268.00
2023-05-12T09:01:12.073Z,99267.13
2023-05-12T09:03:39.372Z,99266.34
2023-05-12T09:06:09.062Z,99277.22
2023-05-12T09:08:37.539Z,99276.03
2023-05-12T09:11:05.473Z,99273.56
2023-05-12T09:30:02.279Z,99274.16
2023-05-12T09:32:33.294Z,99258.81
2023-05-12T09:35:03.973Z,99269.78
2023-05-12T09:37:32.459Z,99265.94
2023-05-12T09:40:00.675Z,99274.94
2023-05-12T09:42:30.761Z,99262.75
2023-05-12T09:45:00.084Z,99270.06
2023-05-12T09:47:37.972Z,99268.63
2023-05-12T09:50:06.940Z,99265.94
2023-05-12T09:52:37.170Z,99261.38
2023-05-12T09:55:12.855Z,99260.47
2023-05-12T09:57:41.796Z,99257.50
2023-05-12T10:00:24.931Z,99256.53
2023-05-12T10:03:00.682Z,99261.47
2023-05-12T10:05:28.727Z,99267.91
2023-05-12T10:07:59.810Z,99256.66
2023-05-12T10:10:28.579Z,99262.78
2023-05-12T10:12:59.088Z,99259.31
2023-05-12T10:15:27.361Z,99255.09
2023-05-12T10:17:56.660Z,99251.78
2023-05-12T10:20:28.364Z,99253.41
2023-05-12T10:23:00.185Z,99247.13
2023-05-12T10:25:28.203Z,99246.41
2023-05-12T10:27:56.265Z,99241.69
2023-05-12T10:30:23.967Z,99244.25
2023-05-12T10:32:51.101Z,99232.53
2023-05-12T10:35:18.950Z,99234.41
2023-05-12T10:37:48.246Z,99244.00
2023-05-12T10:40:23.591Z,99234.19
2023-05-12T10:42:51.726Z,99233.31
2023-05-12T10:45:20.389Z,99225.69
2023-05-12T10:47:48.131Z,99221.78
2023-05-12T10:50:15.292Z,99218.94
2023-05-12T10:52:54.952Z,99219.81
2023-05-12T10:55:31.731Z,99226.22
2023-05-12T10:58:05.344Z,99226.09
2023-05-12T11:00:43.066Z,99223.25
2023-05-12T11:03:17.381Z,99217.97
2023-05-12T11:05:46.925Z,99227.75
2023-05-12T11:08:17.551Z,99216.69
2023-05-12T11:10:47.023Z,99208.78
2023-05-12T11:13:14.295Z,99217.69
2023-05-12T11:15:44.396Z,99219.19
2023-05-12T11:18:12.712Z,99215.84
2023-05-12T11:20:39.783Z,99214.66
2023-05-12T11:23:06.912Z,99217.91
2023-05-12T11:25:36.088Z,99216.09
2023-05-12T11:28:03.474Z,99210.75
2023-05-12T11:30:30.562Z,99210.28
2023-05-12T11:33:01.504Z,99216.56
2023-05-12T11:35:31.171Z,99212.38
2023-05-12T11:37:58.266Z,99202.06
2023-05-12T11:40:25.631Z,99204.34
2023-05-12T11:42:55.789Z,99210.97
2023-05-12T11:45:25.029Z,99204.34
2023-05-12T11:47:53.437Z,99210.19
2023-05-12T11:50:24.538Z,99200.75
2023-05-12T11:52:52.348Z,99200.69
2023-05-12T11:55:24.139Z,99208.00
2023-05-12T11:58:00.527Z,99202.66
2023-05-12T12:00:29.392Z,99204.78
2023-05-12T12:03:09.382Z,99211.31
2023-05-12T12:05:36.735Z,99207.88
2023-05-12T12:08:08.828Z,99203.53
2023-05-12T12:10:36.567Z,99207.53
2023-05-12T12:13:06.380Z,99208.63
2023-05-12T12:15:33.486Z,99201.16
2023-05-12T12:18:00.577Z,99194.38
2023-05-12T12:20:28.002Z,99208.41
2023-05-12T12:22:55.165Z,99193.63
2023-05-12T12:25:22.742Z,99193.16
2023-05-12T12:27:49.956Z,99195.03
2023-05-12T12:30:21.343Z,99180.91
2023-05-12T12:32:49.001Z,99180.16
2023-05-12T12:35:16.070Z,99181.94
2023-05-12T12:37:43.068Z,99186.28
2023-05-12T12:40:11.590Z,99181.50
2023-05-12T12:42:40.644Z,99187.72
2023-05-12T12:45:08.676Z,99175.50
2023-05-12T12:47:37.992Z,99182.66
2023-05-12T12:50:06.192Z,99185.38
2023-05-12T12:52:33.222Z,99171.00
2023-05-12T12:55:00.149Z,99166.19
2023-05-12T12:57:27.607Z,99172.88
2023-05-12T12:59:55.344Z,99171.50
2023-05-12T13:02:22.666Z,99172.88
2023-05-12T13:04:51.270Z,99169.50
2023-05-12T13:07:18.243Z,99161.72
2023-05-12T13:09:45.157Z,99160.44
2023-05-12T13:12:12.607Z,99164.06
2023-05-12T13:14:39.764Z,99157.44
2023-05-12T13:17:06.881Z,99164.22
2023-05-12T13:19:35.893Z,99160.78
2023-05-12T13:22:05.843Z,99160.59
2023-05-12T13:24:33.029Z,99153.22
2023-05-12T13:27:00.143Z,99164.81
2023-05-12T13:29:27.147Z,99164.72
2023-05-12T13:31:57.200Z,99158.41
2023-05-12T13:34:24.122Z,99151.91
2023-05-12T13:36:51.038Z,99159.66
2023-05-12T13:39:19.762Z,99160.53
2023-05-12T13:41:46.870Z,99163.44
2023-05-12T13:44:13.853Z,99156.16
2023-05-12T13:46:41.039Z,99152.25
2023-05-12T13:49:07.999Z,99166.81
2023-05-12T13:51:34.933Z,99157.59
2023-05-12T13:54:02.021Z,99163.00
2023-05-12T13:56:30.350Z,99161.25
2023-05-12T13:58:57.481Z,99163.59
2023-05-12T14:01:24.440Z,99174.09
2023-05-12T14:03:51.531Z,99162.53
2023-05-12T14:06:18.530Z,99175.63
2023-05-12T14:08:45.753Z,99164.63
2023-05-12T14:11:13.373Z,99159.56
2023-05-12T14:13:41.714Z,99168.94
2023-05-12T14:16:09.032Z,99166.88
2023-05-12T14:18:36.129Z,99164.47
2023-05-12T14:21:03.164Z,99159.97
2023-05-12T14:23:30.168Z,99161.06
2023-05-12T14:25:57.195Z,99162.09
2023-05-12T14:28:24.533Z,99171.22
2023-05-12T14:30:55.705Z,99170.50
2023-05-12T14:33:25.579Z,99171.84
2023-05-12T14:36:05.878Z,99159.66
2023-05-12T14:38:34.655Z,99162.13
2023-05-12T14:41:04.108Z,99165.03
2023-05-12T14:43:33.853Z,99167.16
2023-05-12T14:46:02.555Z,99156.81
2023-05-12T14:48:29.616Z,99167.22
2023-05-12T14:50:56.915Z,99167.44
2023-05-12T14:53:24.660Z,99158.19
2023-05-12T14:55:52.151Z,99161.53
2023-05-12T14:58:21.729Z,99151.94
2023-05-12T15:00:51.049Z,99164.47
2023-05-12T15:03:21.291Z,99159.03
2023-05-12T15:08:21.623Z,99165.03
2023-05-12T15:10:49.054Z,99168.28
2023-05-12T15:13:18.274Z,99173.06
2023-05-12T15:15:46.662Z,99165.63
2023-05-12T15:18:13.628Z,99170.59
2023-05-12T15:20:42.179Z,99174.53
2023-05-12T15:23:09.180Z,99165.41
2023-05-12T15:25:38.608Z,99174.22
2023-05-12T15:28:05.610Z,99162.28
2023-05-12T15:30:32.944Z,99160.63
2023-05-12T15:33:01.693Z,99159.41
2023-05-12T15:35:28.670Z,99174.91
2023-05-12T15:37:56.948Z,99169.63
2023-05-12T15:40:24.030Z,99178.66
2023-05-12T15:42:51.360Z,99170.56
2023-05-12T15:45:19.039Z,99173.41
2023-05-12T15:47:46.222Z,99160.09
2023-05-12T15:50:16.287Z,99166.38
2023-05-12T15:52:43.217Z,99168.97
2023-05-12T15:55:11.639Z,99160.72
2023-05-12T15:57:38.553Z,99165.03
2023-05-12T16:00:07.076Z,99166.03
2023-05-12T16:02:40.283Z,99168.16
2023-05-12T16:05:08.396Z,99163.19
2023-05-12T16:07:35.887Z,99157.25
2023-05-12T16:10:03.805Z,99157.25
2023-05-12T16:12:32.253Z,99161.88
2023-05-12T16:14:59.528Z,99168.19
2023-05-12T16:17:27.772Z,99166.78
2023-05-12T16:19:56.894Z,99174.34
2023-05-12T16:22:23.987Z,99177.75
2023-05-12T16:24:51.014Z,99175.50
2023-05-12T16:27:17.944Z,99180.91
2023-05-12T16:29:48.105Z,99189.13
2023-05-12T16:32:15.476Z,99191.88
2023-05-12T16:34:43.027Z,99189.06
2023-05-12T16:37:09.950Z,99189.97
2023-05-12T16:39:36.958Z,99188.63
2023-05-12T16:42:04.466Z,99195.63
2023-05-12T16:44:31.443Z,99197.53
2023-05-12T16:46:59.808Z,99202.81
2023-05-12T16:49:26.764Z,99198.75
2023-05-12T16:51:53.675Z,99197.41
2023-05-12T16:54:20.688Z,99196.50
2023-05-12T16:56:48.418Z,99198.78
2023-05-12T16:59:15.554Z,99189.75
2023-05-12T17:01:42.812Z,99194.78
2023-05-12T17:04:12.459Z,99198.25
2023-05-12T17:06:39.572Z,99198.34
2023-05-12T17:09:06.559Z,99195.88
2023-05-12T17:11:34.272Z,99208.13
2023-05-12T17:14:01.228Z,99210.81
2023-05-12T17:16:28.698Z,99201.56
2023-05-12T17:21:28.298Z,99210.19
2023-05-12T17:23:55.246Z,99206.25
2023-05-12T17:26:22.572Z,99197.00
2023-05-12T17:28:49.656Z,99199.13
2023-05-12T17:31:16.783Z,99207.78
2023-05-12T17:33:43.802Z,99215.97
2023-05-12T17:36:13.389Z,99210.19
2023-05-12T17:38:41.918Z,99207.78
2023-05-12T17:41:08.898Z,99213.38
2023-05-12T17:43:36.190Z,99215.84
2023-05-12T17:46:04.778Z,99210.09
2023-05-12T17:48:33.338Z,99224.06
2023-05-12T17:51:00.994Z,99220.91
2023-05-12T17:53:27.976Z,99221.13
2023-05-12T17:55:56.332Z,99227.09
2023-05-12T17:58:23.528Z,99225.94
2023-05-12T18:00:51.269Z,99228.75
2023-05-12T18:03:23.311Z,99238.72
2023-05-12T18:05:54.129Z,99235.28
2023-05-12T18:08:21.764Z,99225.78
2023-05-12T18:10:49.063Z,99233.75
2023-05-12T18:13:17.393Z,99227.66
2023-05-12T18:15:44.426Z,99228.28
2023-05-12T18:18:12.384Z,99230.31
2023-05-12T18:20:39.409Z,99231.06
2023-05-12T18:23:06.935Z,99231.06
2023-05-12T18:25:34.307Z,99226.13
2023-05-12T18:28:01.580Z,99232.72
2023-05-12T18:30:30.072Z,99238.69
2023-05-12T18:32:57.097Z,99234.72
2023-05-12T18:35:25.005Z,99228.41
2023-05-12T18:37:52.002Z,99239.81
2023-05-12T18:40:18.903Z,99237.22
2023-05-12T18:42:46.320Z,99243.16
2023-05-12T18:45:13.244Z,99249.94
2023-05-12T18:47:41.836Z,99242.75
2023-05-12T18:50:09.898Z,99255.88
2023-05-12T18:52:37.260Z,99262.25
2023-05-12T18:55:05.333Z,99257.88
2023-05-12T18:57:32.298Z,99260.88
2023-05-12T18:59:59.260Z,99256.69
2023-05-12T19:02:26.324Z,99262.47
2023-05-12T19:04:55.092Z,99268.41
2023-05-12T19:07:22.052Z,99270.00
2023-05-12T19:09:48.996Z,99267.78
2023-05-12T19:12:16.134Z,99279.47
2023-05-12T19:14:44.512Z,99274.53
2023-05-12T19:17:11.682Z,99276.91
2023-05-12T19:19:38.624Z,99273.38
2023-05-12T19:22:07.024Z,99281.75
2023-05-12T19:24:34.922Z,99284.53
2023-05-12T19:27:02.099Z,99283.75
2023-05-12T19:29:29.052Z,99279.78
2023-05-12T19:31:56.263Z,99285.97
2023-05-12T19:34:23.972Z,99283.59
2023-05-12T19:36:52.149Z,99286.59
2023-05-12T19:39:20.505Z,99286.06
2023-05-12T19:41:47.673Z,99288.25
2023-05-12T19:44:14.652Z,99283.53
2023-05-12T19:46:41.602Z,99277.56
2023-05-12T19:49:08.646Z,99285.31
2023-05-12T19:51:35.621Z,99282.72
2023-05-12T19:54:04.833Z,99279.13
2023-05-12T19:56:33.344Z,99276.34
2023-05-12T19:59:00.715Z,99282.72
2023-05-12T20:01:27.774Z,99278.38
2023-05-12T20:03:54.779Z,99282.31
2023-05-12T20:06:22.518Z,99280.94
2023-05-12T20:08:49.549Z,99279.00
2023-05-12T20:11:16.532Z,99284.16
2023-05-12T20:13:44.841Z,99280.75
2023-05-12T20:16:11.801Z,99281.78
2023-05-12T20:18:39.016Z,99284.78
2023-05-12T20:21:06.001Z,99281.59
2023-05-12T20:23:33.469Z,99281.03
2023-05-12T20:26:00.383Z,99276.50
2023-05-12T20:28:28.318Z,99275.09
2023-05-12T20:30:56.749Z,99275.56
2023-05-12T20:33:23.795Z,99281.94
2023-05-12T20:35:50.946Z,99281.72
2023-05-12T20:38:18.012Z,99274.00
2023-05-12T20:40:47.903Z,99276.38
2023-05-12T20:43:15.316Z,99277.19
2023-05-12T20:45:42.580Z,99267.47
2023-05-12T20:48:11.052Z,99267.47
2023-05-12T20:50:38.053Z,99259.53
2023-05-12T20:53:05.397Z,99264.94
2023-05-12T20:55:32.957Z,99255.84
2023-05-12T20:57:59.938Z,99254.84
2023-05-12T21:00:27.034Z,99246.34
2023-05-12T21:02:54.680Z,99246.16
2023-05-12T21:05:23.312Z,99246.34
2023-05-12T21:07:50.357Z,99246.16
2023-05-12T21:10:18.040Z,99246.34
2023-05-12T21:12:45.095Z,99241.19
2023-05-12T21:15:12.195Z,99236.66
2023-05-12T21:17:39.976Z,99235.06
2023-05-12T21:20:08.724Z,99226.75
2023-05-12T21:22:38.434Z,99232.09
2023-05-12T21:25:06.134Z,99228.41
2023-05-12T21:27:33.070Z,99236.75
2023-05-12T21:30:00.890Z,99232.34
2023-05-12T21:32:28.001Z,99228.81
2023-05-12T21:34:55.006Z,99233.97
2023-05-12T21:37:21.960Z,99231.84
2023-05-12T21:39:50.413Z,99234.41
2023-05-12T21:42:17.403Z,99241.00
2023-05-12T21:44:44.354Z,99236.06
2023-05-12T21:47:11.253Z,99235.03
2023-05-12T21:49:38.311Z,99238.81
2023-05-12T21:52:05.720Z,99249.53
2023-05-12T21:54:35.745Z,99239.44
2023-05-12T21:57:04.292Z,99242.81
2023-05-12T21:59:31.295Z,99244.38
2023-05-12T22:01:58.492Z,99245.59
2023-05-12T22:04:25.515Z,99248.97
2023-05-12T22:06:52.490Z,99248.75
2023-05-12T22:09:20.450Z,99244.41
2023-05-12T22:11:47.446Z,99247.19
2023-05-12T22:14:16.106Z,99250.34
2023-05-12T22:16:43.182Z,99247.38
2023-05-12T22:19:10.263Z,99243.59
2023-05-12T22:21:37.382Z,99248.75
2023-05-12T22:24:04.916Z,99254.72
2023-05-12T22:26:31.860Z,99233.72
2023-05-12T22:28:58.833Z,99249.00
2023-05-12T22:31:27.560Z,99244.78
2023-05-12T22:33:54.701Z,99247.81
2023-05-12T22:36:21.595Z,99231.34
2023-05-12T22:38:48.506Z,99235.31
2023-05-12T22:41:15.452Z,99233.13
2023-05-12T22:43:42.377Z,99240.88
2023-05-12T22:46:09.710Z,99245.63
2023-05-12T22:48:39.425Z,99246.00
2023-05-12T22:51:06.820Z,99244.41
2023-05-12T22:53:35.809Z,99239.88
2023-05-12T22:56:03.082Z,99248.78
2023-05-12T22:58:30.070Z,99240.47
2023-05-12T23:00:57.162Z,99248.00
2023-05-12T23:03:24.706Z,99241.47
2023-05-12T23:05:53.140Z,99246.41
2023-05-12T23:08:20.345Z,99251.78
2023-05-12T23:10:47.252Z,99251.78
2023-05-12T23:13:14.268Z,99240.88
2023-05-12T23:15:41.618Z,99246.03
2023-05-12T23:18:08.723Z,99240.09
2023-05-12T23:20:36.088Z,99233.34
2023-05-12T23:23:04.472Z,99236.91
2023-05-12T23:25:31.800Z,99236.50
2023-05-12T23:27:58.827Z,99230.78
2023-05-12T23:30:26.124Z,99224.63
2023-05-12T23:32:53.172Z,99233.16
2023-05-12T23:35:20.140Z,99224.06
2023-05-12T23:37:47.088Z,99233.34
2023-05-12T23:40:15.586Z,99235.09
2023-05-12T23:42:42.607Z,99238.25
2023-05-12T23:45:10.514Z,99230.53
2023-05-12T23:47:37.863Z,99232.91
2023-05-12T23:50:05.836Z,99234.47
2023-05-12T23:52:32.883Z,99226.56
2023-05-12T23:55:00.320Z,99237.81
2023-05-12T23:57:28.862Z,99234.84
2023-05-12T23:59:55.947Z,99238.41
